Time;durP1;ratioP1;P1;durP2;ratioP2;P2;SDS_P1;SDS_P2;PMS_P1;PMS_P2;Temp;Humidity;BMP_temperature;BMP_pressure;BME280_temperature;BME280_humidity;BME280_pressure;Samples;Min_cycle;Max_cycle;Signal;HPM_P1;HPM_P2
2022/09/21 00:02:57;;;;;;;1.45;1.10;;;18.70;73.20;;;;;;10865958;32;20020;-73
2022/09/21 00:08:59;;;;;;;1.08;0.98;;;18.60;73.30;;;;;;10869549;32;20024;-74
2022/09/21 00:15:01;;;;;;;3.70;1.75;;;18.50;73.30;;;;;;10869434;32;20019;-74
2022/09/21 00:21:09;;;;;;;1.50;1.00;;;18.40;73.50;;;;;;10869626;32;20058;-74
2022/09/21 00:27:12;;;;;;;1.27;1.00;;;18.40;73.60;;;;;;10869226;32;20020;-76
2022/09/21 00:33:28;;;;;;;0.95;0.88;;;18.20;74.40;;;;;;10869010;32;20019;-72
2022/09/21 00:39:30;;;;;;;1.85;1.50;;;17.80;75.70;;;;;;10868479;32;20046;-73
2022/09/21 00:45:32;;;;;;;0.98;0.88;;;17.50;76.70;;;;;;10855130;32;20180;-72
2022/09/21 00:51:36;;;;;;;0.98;0.82;;;17.30;77.80;;;;;;10868338;32;20011;-74
2022/09/21 00:57:38;;;;;;;1.92;1.15;;;17.20;78.50;;;;;;10867940;32;20400;-73
2022/09/21 01:03:43;;;;;;;1.75;1.30;;;17.20;79.10;;;;;;10863605;32;20372;-74
2022/09/21 01:09:49;;;;;;;0.70;0.70;;;17.20;79.40;;;;;;10867744;32;20042;-72
2022/09/21 01:15:54;;;;;;;0.65;0.62;;;17.10;79.20;;;;;;10867196;32;20376;-72
2022/09/21 01:22:16;;;;;;;0.50;0.50;;;17.10;78.90;;;;;;10867241;32;20031;-72
2022/09/21 01:28:49;;;;;;;1.33;0.80;;;17.20;78.50;;;;;;10867086;32;20381;-72
2022/09/21 01:35:14;;;;;;;1.45;1.02;;;17.10;78.30;;;;;;10867131;32;20015;-71
2022/09/21 01:41:22;;;;;;;1.92;1.02;;;17.20;78.00;;;;;;10866784;32;20049;-71
2022/09/21 01:47:26;;;;;;;0.95;0.90;;;17.20;78.60;;;;;;10853593;32;20016;-71
2022/09/21 01:53:59;;;;;;;0.90;0.70;;;17.20;79.00;;;;;;10866703;32;20046;-71
2022/09/21 02:00:02;;;;;;;1.20;1.08;;;17.30;79.10;;;;;;10863343;32;20028;-70
2022/09/21 02:06:15;;;;;;;0.65;0.65;;;17.30;78.80;;;;;;10866652;32;20363;-70
2022/09/21 02:12:17;;;;;;;1.48;1.10;;;17.30;78.50;;;;;;10865965;32;20062;-71
2022/09/21 02:18:39;;;;;;;1.73;1.15;;;17.20;78.30;;;;;;10853102;32;20069;-71
2022/09/21 02:24:46;;;;;;;0.90;0.90;;;17.20;78.40;;;;;;10852990;32;20058;-72
2022/09/21 02:30:58;;;;;;;2.85;1.25;;;17.30;78.50;;;;;;10871049;32;20446;-72
2022/09/21 02:37:31;;;;;;;1.42;1.33;;;17.10;79.00;;;;;;10859593;32;20019;-71
2022/09/21 02:43:44;;;;;;;1.95;1.65;;;17.10;79.00;;;;;;10795957;33;20029;-72
2022/09/21 02:49:52;;;;;;;1.10;1.10;;;17.00;78.80;;;;;;10794317;33;20397;-72
2022/09/21 02:55:57;;;;;;;1.30;1.17;;;17.00;79.10;;;;;;10794271;33;20156;-72
2022/09/21 03:01:59;;;;;;;1.52;1.12;;;17.00;79.30;;;;;;10795116;33;20046;-71
2022/09/21 03:08:01;;;;;;;1.52;1.42;;;17.10;78.90;;;;;;10794856;33;20024;-71
2022/09/21 03:14:07;;;;;;;1.60;1.33;;;17.00;78.60;;;;;;10793896;33;20075;-72
2022/09/21 03:20:10;;;;;;;1.08;0.98;;;16.90;78.70;;;;;;10852094;32;20308;-72
2022/09/21 03:26:13;;;;;;;1.83;1.00;;;16.80;78.60;;;;;;10871370;32;20050;-72
2022/09/21 03:32:15;;;;;;;1.33;1.23;;;16.70;78.70;;;;;;10871076;32;20054;-72
2022/09/21 03:38:19;;;;;;;1.30;1.20;;;16.80;78.90;;;;;;10870463;32;20031;-72
2022/09/21 03:44:22;;;;;;;1.73;1.25;;;16.90;78.50;;;;;;10870517;32;20024;-72
2022/09/21 03:50:28;;;;;;;1.73;1.17;;;16.80;78.20;;;;;;10857128;32;20019;-72
2022/09/21 03:56:30;;;;;;;2.15;1.50;;;16.60;78.40;;;;;;10870312;32;20426;-72
2022/09/21 04:02:32;;;;;;;1.42;0.90;;;16.50;78.60;;;;;;10856727;32;20332;-72
2022/09/21 04:08:34;;;;;;;1.17;0.85;;;16.70;78.60;;;;;;10869588;32;20031;-72
2022/09/21 04:14:36;;;;;;;0.95;0.90;;;16.50;78.50;;;;;;10869584;32;20396;-72
2022/09/21 04:20:38;;;;;;;1.23;1.12;;;16.50;78.50;;;;;;10869253;32;20027;-72
2022/09/21 04:26:43;;;;;;;1.27;1.10;;;16.50;78.50;;;;;;10869012;32;20027;-73
2022/09/21 04:32:47;;;;;;;1.48;1.23;;;16.50;78.40;;;;;;10843561;32;20054;-72
2022/09/21 04:38:50;;;;;;;1.17;1.08;;;16.60;78.30;;;;;;10864989;32;20031;-72
2022/09/21 04:44:53;;;;;;;4.93;1.98;;;16.70;78.30;;;;;;10868374;32;20050;-72
2022/09/21 04:50:55;;;;;;;1.45;1.30;;;16.60;78.20;;;;;;10867484;32;20028;-72
2022/09/21 04:56:57;;;;;;;2.25;1.55;;;16.50;78.20;;;;;;10864789;32;20032;-72
2022/09/21 05:02:59;;;;;;;1.02;1.00;;;16.30;78.30;;;;;;10867735;32;20050;-72
2022/09/21 05:15:22;;;;;;;1.30;1.20;;;16.30;78.40;;;;;;10867430;32;20178;-73
2022/09/21 05:21:25;;;;;;;3.70;1.77;;;16.30;78.30;;;;;;10867216;32;20032;-73
2022/09/21 05:27:27;;;;;;;1.05;1.02;;;16.30;78.40;;;;;;10867067;32;20023;-72
2022/09/21 05:33:32;;;;;;;1.35;1.17;;;16.40;78.40;;;;;;10866958;32;20020;-73
2022/09/21 05:39:35;;;;;;;1.58;1.12;;;16.50;78.50;;;;;;10864071;32;20027;-73
2022/09/21 05:45:45;;;;;;;1.90;0.93;;;16.60;78.30;;;;;;10863601;32;20074;-73
2022/09/21 05:52:18;;;;;;;1.10;0.90;;;16.60;78.40;;;;;;10866525;32;20019;-72
2022/09/21 05:58:50;;;;;;;1.23;1.10;;;16.70;78.90;;;;;;10866023;32;20066;-72
2022/09/21 06:04:56;;;;;;;0.50;0.50;;;16.70;79.60;;;;;;10870495;32;20289;-72
2022/09/21 06:10:58;;;;;;;1.27;1.10;;;16.80;79.30;;;;;;10879166;27;20015;-72
2022/09/21 06:17:04;;;;;;;0.77;0.77;;;16.80;79.40;;;;;;10865734;32;20023;-72
2022/09/21 06:23:09;;;;;;;1.23;1.00;;;16.80;79.60;;;;;;10862763;32;20054;-72
2022/09/21 06:29:12;;;;;;;1.50;1.10;;;16.80;79.70;;;;;;10873162;32;20046;-74
2022/09/21 06:35:14;;;;;;;1.10;1.00;;;16.80;79.90;;;;;;10859578;32;20051;-73
2022/09/21 06:41:16;;;;;;;2.15;1.30;;;16.80;79.90;;;;;;10872644;32;20050;-73
2022/09/21 06:47:18;;;;;;;0.88;0.88;;;16.80;79.80;;;;;;10872497;32;20051;-73
2022/09/21 06:53:21;;;;;;;1.85;1.08;;;16.80;79.60;;;;;;10872517;32;20024;-73
2022/09/21 06:59:24;;;;;;;1.37;1.20;;;16.90;79.70;;;;;;10866968;32;20063;-73
2022/09/21 07:05:33;;;;;;;1.15;1.00;;;17.00;79.30;;;;;;10871948;32;20048;-73
2022/09/21 07:11:40;;;;;;;4.53;1.25;;;17.00;79.20;;;;;;10868098;32;20028;-73
2022/09/21 07:17:43;;;;;;;1.70;1.17;;;17.10;79.10;;;;;;10865739;32;20046;-73
2022/09/21 07:24:03;;;;;;;1.85;1.17;;;17.20;78.70;;;;;;10871562;32;20046;-73
2022/09/21 07:30:06;;;;;;;5.95;1.30;;;17.30;78.20;;;;;;10867118;32;20281;-72
2022/09/21 07:36:10;;;;;;;1.62;1.30;;;17.30;78.10;;;;;;10869723;32;20046;-73
2022/09/21 07:42:12;;;;;;;3.15;1.77;;;17.30;77.90;;;;;;10869586;32;20396;-73
2022/09/21 07:48:14;;;;;;;1.67;1.15;;;17.40;77.60;;;;;;10868324;32;20032;-72
2022/09/21 07:54:16;;;;;;;2.95;0.93;;;17.50;77.40;;;;;;10866295;32;20379;-71
2022/09/21 08:00:19;;;;;;;1.00;0.90;;;17.50;76.60;;;;;;10870030;32;20427;-72
2022/09/21 08:06:23;;;;;;;1.48;1.00;;;17.60;76.80;;;;;;10853550;32;20062;-72
2022/09/21 08:12:25;;;;;;;1.52;1.23;;;17.70;76.40;;;;;;10869433;32;20031;-72
2022/09/21 08:18:27;;;;;;;1.12;0.98;;;17.70;76.40;;;;;;10852034;32;20027;-75
2022/09/21 08:24:30;;;;;;;3.95;1.20;;;17.80;76.00;;;;;;10469295;32;12143500;-72
2022/09/21 08:30:33;;;;;;;1.33;0.80;;;17.80;75.80;;;;;;10828112;32;20046;-72
2022/09/21 08:36:34;;;;;;;3.00;1.33;;;17.90;75.50;;;;;;10824203;33;20332;-72
2022/09/21 08:42:58;;;;;;;2.33;1.30;;;18.00;74.80;;;;;;10828393;32;20031;-72
2022/09/21 08:49:05;;;;;;;1.25;0.90;;;18.10;74.20;;;;;;10849982;32;20336;-72
2022/09/21 08:55:19;;;;;;;2.12;1.25;;;18.10;74.40;;;;;;10866534;32;20020;-72
2022/09/21 09:01:24;;;;;;;0.88;0.82;;;18.20;74.00;;;;;;10867710;32;20406;-72
2022/09/21 09:08:18;;;;;;;1.92;1.42;;;18.30;73.30;;;;;;10867265;32;20058;-72
2022/09/21 09:14:54;;;;;;;0.90;0.80;;;18.40;72.60;;;;;;10749831;33;20062;-72
2022/09/21 09:21:02;;;;;;;1.17;0.82;;;18.50;70.90;;;;;;10737019;33;20029;-73
2022/09/21 09:27:31;;;;;;;4.50;1.73;;;18.50;70.80;;;;;;10752337;33;20028;-72
2022/09/21 09:34:13;;;;;;;0.82;0.82;;;18.60;69.60;;;;;;10750682;33;20068;-73
2022/09/21 09:40:25;;;;;;;1.00;0.90;;;18.70;69.20;;;;;;10739287;33;20055;-73
2022/09/21 09:46:49;;;;;;;1.60;1.02;;;18.80;69.30;;;;;;10775276;32;20201;-73
2022/09/21 09:52:55;;;;;;;0.98;0.95;;;18.90;69.00;;;;;;10866266;32;20367;-73
2022/09/21 09:59:07;;;;;;;1.58;1.00;;;19.10;68.80;;;;;;10866507;32;20046;-72
2022/09/21 10:05:23;;;;;;;1.12;0.95;;;19.20;67.60;;;;;;10866432;32;20058;-73
2022/09/21 10:11:36;;;;;;;2.10;0.70;;;19.30;67.20;;;;;;10852005;32;20530;-73
2022/09/21 10:17:38;;;;;;;1.15;0.80;;;19.40;67.00;;;;;;10859671;32;20066;-73
2022/09/21 10:23:51;;;;;;;1.23;1.00;;;19.50;66.70;;;;;;10864632;32;20392;-73
2022/09/21 10:29:54;;;;;;;1.35;0.75;;;19.60;65.10;;;;;;10862121;32;20074;-74
2022/09/21 10:35:56;;;;;;;1.08;0.98;;;19.70;64.70;;;;;;10862503;32;20024;-74
2022/09/21 10:42:00;;;;;;;1.40;0.80;;;19.90;64.50;;;;;;10863224;32;20031;-73
2022/09/21 10:48:19;;;;;;;0.85;0.73;;;20.00;64.00;;;;;;10866492;32;20054;-73
2022/09/21 10:54:26;;;;;;;1.30;0.85;;;20.20;63.40;;;;;;10859187;32;20027;-73
2022/09/21 11:00:34;;;;;;;1.10;0.70;;;20.50;63.10;;;;;;10868448;32;20431;-74
2022/09/21 11:07:23;;;;;;;1.00;0.57;;;20.50;62.70;;;;;;10867861;32;20336;-74
2022/09/21 11:13:53;;;;;;;0.45;0.30;;;20.40;62.70;;;;;;10861859;32;20035;-74
2022/09/21 11:20:08;;;;;;;0.95;0.60;;;20.90;61.70;;;;;;10870229;32;20340;-73
2022/09/21 11:26:33;;;;;;;8.60;0.62;;;21.30;59.50;;;;;;10865050;32;20031;-73
2022/09/21 11:32:43;;;;;;;1.02;0.70;;;21.30;59.50;;;;;;10870481;32;20039;-74
2022/09/21 11:38:48;;;;;;;0.85;0.60;;;21.30;59.40;;;;;;10834903;32;20025;-75
2022/09/21 11:44:57;;;;;;;4.25;0.77;;;21.10;59.90;;;;;;10829344;33;20046;-75
2022/09/21 11:51:15;;;;;;;0.73;0.70;;;21.30;58.70;;;;;;10833406;32;20298;-74
2022/09/21 11:57:29;;;;;;;3.97;0.95;;;21.40;57.20;;;;;;10828975;33;20023;-73
2022/09/21 12:03:45;;;;;;;1.83;0.75;;;21.40;55.80;;;;;;10828390;32;20032;-75
2022/09/21 12:10:00;;;;;;;0.95;0.70;;;21.40;56.30;;;;;;10832709;32;20415;-74
2022/09/21 12:16:05;;;;;;;0.75;0.75;;;21.30;55.80;;;;;;10832607;32;20038;-74
2022/09/21 12:22:23;;;;;;;0.70;0.70;;;21.30;55.90;;;;;;10831066;32;20324;-74
2022/09/21 12:28:46;;;;;;;1.40;0.57;;;21.30;55.80;;;;;;10838299;32;20070;-74
2022/09/21 12:34:56;;;;;;;2.03;0.60;;;21.10;55.30;;;;;;10906267;32;20046;-74
2022/09/21 12:41:20;;;;;;;0.90;0.80;;;20.70;56.00;;;;;;10898627;32;20032;-73
2022/09/21 12:47:59;;;;;;;2.00;0.98;;;20.70;56.50;;;;;;10829791;32;20329;-73
2022/09/21 12:54:24;;;;;;;1.23;0.80;;;20.70;57.00;;;;;;10827482;32;20442;-74
2022/09/21 13:01:16;;;;;;;0.62;0.62;;;20.80;56.30;;;;;;10830617;32;20427;-74
2022/09/21 13:07:33;;;;;;;0.70;0.60;;;20.70;56.90;;;;;;10717937;33;20029;-72
2022/09/21 13:13:37;;;;;;;0.60;0.52;;;20.80;56.40;;;;;;10714173;33;20029;-72
2022/09/21 13:19:40;;;;;;;1.75;0.62;;;20.80;56.40;;;;;;10716437;33;20059;-73
2022/09/21 13:25:48;;;;;;;0.95;0.40;;;20.80;56.20;;;;;;10716475;33;20051;-73
2022/09/21 13:32:12;;;;;;;1.67;1.05;;;20.80;56.20;;;;;;10717426;33;20056;-73
2022/09/21 13:38:26;;;;;;;2.28;1.40;;;20.80;55.40;;;;;;10713068;33;20051;-72
2022/09/21 13:44:42;;;;;;;0.57;0.57;;;20.80;56.40;;;;;;10818130;32;20070;-72
2022/09/21 13:50:46;;;;;;;0.60;0.60;;;20.80;55.50;;;;;;10829496;33;20042;-74
2022/09/21 13:57:16;;;;;;;1.05;0.75;;;20.90;55.60;;;;;;10828684;33;20020;-73
2022/09/21 14:03:48;;;;;;;0.50;0.50;;;20.90;55.60;;;;;;10816424;33;20430;-73
2022/09/21 14:09:56;;;;;;;2.10;1.00;;;20.90;55.30;;;;;;10802970;33;20032;-73
2022/09/21 14:16:17;;;;;;;;;;;21.00;55.40;;;;;;10862506;27;20043;-73
2022/09/21 14:22:19;;;;;;;0.45;0.45;;;21.00;55.70;;;;;;10863199;32;19927;-73
2022/09/21 14:28:40;;;;;;;0.88;0.70;;;21.10;55.30;;;;;;10869079;32;20047;-74
2022/09/21 14:34:46;;;;;;;0.70;0.70;;;21.30;54.60;;;;;;10873128;32;20016;-73
2022/09/21 14:40:51;;;;;;;1.75;1.17;;;21.30;54.10;;;;;;10872794;32;20031;-73
2022/09/21 14:47:19;;;;;;;1.48;0.75;;;21.30;53.50;;;;;;10859183;32;20050;-73
2022/09/21 14:53:54;;;;;;;1.97;0.77;;;21.40;53.30;;;;;;10868329;32;20016;-72
2022/09/21 15:00:13;;;;;;;0.47;0.47;;;21.40;53.70;;;;;;10868189;32;20028;-72
2022/09/21 15:13:10;;;;;;;1.75;0.40;;;21.50;52.70;;;;;;10871979;32;20054;-73
2022/09/21 15:19:21;;;;;;;0.65;0.65;;;21.60;52.10;;;;;;10868213;32;20407;-72
2022/09/21 15:25:27;;;;;;;0.43;0.43;;;21.90;51.30;;;;;;10871332;32;20019;-74
2022/09/21 15:31:39;;;;;;;0.50;0.43;;;23.00;49.70;;;;;;10871039;32;20023;-72
2022/09/21 15:37:41;;;;;;;1.58;0.77;;;23.80;48.30;;;;;;10870156;32;20070;-73
2022/09/21 15:43:54;;;;;;;0.30;0.30;;;24.50;47.30;;;;;;10857448;32;20036;-72
2022/09/21 15:50:14;;;;;;;1.65;0.57;;;24.30;47.20;;;;;;10856073;32;20031;-73
2022/09/21 15:56:24;;;;;;;0.35;0.30;;;23.30;48.80;;;;;;10868868;32;20055;-73
2022/09/21 16:02:30;;;;;;;0.82;0.50;;;22.70;50.70;;;;;;10866653;32;20054;-72
2022/09/21 16:08:35;;;;;;;0.37;0.30;;;22.80;50.40;;;;;;10856606;32;20023;-72
2022/09/21 16:14:53;;;;;;;0.65;0.57;;;23.20;49.40;;;;;;10866137;32;20069;-72
2022/09/21 16:20:55;;;;;;;1.90;0.55;;;23.40;50.30;;;;;;10869385;32;20032;-73
2022/09/21 16:27:02;;;;;;;0.60;0.50;;;23.30;51.20;;;;;;10866308;32;20032;-72
2022/09/21 16:33:55;;;;;;;1.75;0.35;;;22.60;51.90;;;;;;10865412;32;20050;-73
2022/09/21 16:39:58;;;;;;;0.40;0.40;;;22.00;52.20;;;;;;10868820;32;20035;-73
2022/09/21 16:46:01;;;;;;;0.43;0.32;;;21.60;53.00;;;;;;10868227;32;20028;-74
2022/09/21 16:52:04;;;;;;;0.30;0.30;;;21.30;53.40;;;;;;10868480;32;20395;-74
2022/09/21 16:58:07;;;;;;;0.50;0.50;;;21.00;53.70;;;;;;10868543;32;20399;-74
2022/09/21 17:04:12;;;;;;;0.40;0.40;;;20.80;54.30;;;;;;10866587;32;20053;-73
2022/09/21 17:10:15;;;;;;;0.80;0.60;;;20.60;55.60;;;;;;10855174;32;20062;-73
2022/09/21 17:16:18;;;;;;;1.58;0.93;;;20.40;56.70;;;;;;10854722;32;20027;-73
2022/09/21 17:22:21;;;;;;;1.02;0.60;;;20.30;57.50;;;;;;10863328;32;20035;-73
2022/09/21 17:28:25;;;;;;;1.73;0.98;;;20.10;57.70;;;;;;10852824;32;20062;-73
2022/09/21 17:34:30;;;;;;;1.10;0.80;;;20.00;58.10;;;;;;10844408;32;20070;-73
2022/09/21 17:40:34;;;;;;;4.10;1.35;;;19.80;58.50;;;;;;10821681;32;20400;-73
2022/09/21 17:46:41;;;;;;;0.95;0.73;;;19.70;58.80;;;;;;10830671;32;20059;-72
2022/09/21 17:59:05;;;;;;;8.45;1.25;;;19.50;59.50;;;;;;10831053;32;20039;-72
2022/09/21 18:05:28;;;;;;;1.65;0.95;;;19.40;59.80;;;;;;10836821;32;20020;-72
2022/09/21 18:12:00;;;;;;;1.52;0.90;;;19.30;60.20;;;;;;10836555;32;20286;-72
2022/09/21 18:18:18;;;;;;;4.45;1.95;;;19.20;60.90;;;;;;10836459;32;20404;-73
2022/09/21 18:24:26;;;;;;;1.95;0.95;;;19.10;61.40;;;;;;10819767;33;20054;-73
2022/09/21 18:30:29;;;;;;;1.13;1.00;;;18.90;61.80;;;;;;10836039;32;20046;-73
2022/09/21 18:36:42;;;;;;;1.20;0.70;;;18.80;62.20;;;;;;10834243;32;20108;-73
2022/09/21 18:43:10;;;;;;;0.95;0.75;;;18.80;62.50;;;;;;10836347;32;20068;-73
2022/09/21 18:49:22;;;;;;;0.73;0.68;;;18.70;62.80;;;;;;10827097;32;20028;-73
2022/09/21 18:55:31;;;;;;;1.00;0.90;;;18.60;63.10;;;;;;10834065;32;20086;-72
2022/09/21 19:01:34;;;;;;;1.20;0.80;;;18.50;63.40;;;;;;10834702;32;20050;-72
2022/09/21 19:07:46;;;;;;;1.58;1.02;;;18.50;63.90;;;;;;10830578;32;20325;-72
2022/09/21 19:14:33;;;;;;;0.65;0.65;;;18.50;64.00;;;;;;10830146;32;20024;-72
2022/09/21 19:21:13;;;;;;;1.15;0.82;;;18.50;64.30;;;;;;10834227;32;20047;-72
2022/09/21 19:27:20;;;;;;;2.30;0.93;;;18.50;64.50;;;;;;10830552;33;20477;-73
2022/09/21 19:33:31;;;;;;;1.37;0.93;;;18.30;64.70;;;;;;10829595;33;20050;-73
2022/09/21 19:39:34;;;;;;;4.12;2.50;;;18.30;64.90;;;;;;10833421;32;20040;-73
2022/09/21 19:46:03;;;;;;;3.50;2.12;;;18.20;65.30;;;;;;10830609;32;20032;-73
2022/09/21 19:52:07;;;;;;;2.30;1.80;;;18.30;65.30;;;;;;10833128;32;20073;-73
2022/09/21 20:04:47;;;;;;;5.15;3.08;;;18.30;65.40;;;;;;10829883;33;20051;-73
2022/09/21 20:10:59;;;;;;;1.33;1.23;;;18.40;65.60;;;;;;10830177;32;20050;-73
2022/09/21 20:17:09;;;;;;;2.12;1.35;;;18.30;65.70;;;;;;10831115;32;20141;-73
2022/09/21 20:23:55;;;;;;;1.30;0.95;;;18.30;66.20;;;;;;10832589;32;20094;-73
2022/09/21 20:29:57;;;;;;;3.83;1.67;;;18.30;66.80;;;;;;10829978;32;20028;-73
2022/09/21 20:35:59;;;;;;;3.25;1.45;;;18.20;67.00;;;;;;10830633;32;20352;-73
2022/09/21 20:42:01;;;;;;;1.35;1.20;;;18.10;67.20;;;;;;10827413;33;20032;-73
2022/09/21 20:48:12;;;;;;;4.10;1.83;;;18.10;67.50;;;;;;10827239;33;20058;-73
2022/09/21 20:54:30;;;;;;;6.05;1.90;;;18.00;67.60;;;;;;10828327;32;20042;-74
2022/09/21 21:00:32;;;;;;;2.60;1.53;;;18.00;67.80;;;;;;10831026;32;20442;-73
2022/09/21 21:06:36;;;;;;;2.37;1.35;;;17.90;68.00;;;;;;10830781;32;20023;-74
2022/09/21 21:12:40;;;;;;;1.95;1.73;;;17.90;68.30;;;;;;10826603;32;20103;-74
2022/09/21 21:18:43;;;;;;;2.40;1.77;;;17.80;68.40;;;;;;10829531;32;20024;-74
2022/09/21 21:24:45;;;;;;;1.65;1.27;;;17.90;68.50;;;;;;10829433;32;20056;-73
2022/09/21 21:31:19;;;;;;;4.03;2.05;;;17.80;68.70;;;;;;10827670;32;20024;-74
2022/09/21 21:37:25;;;;;;;2.55;1.58;;;17.70;68.70;;;;;;10827679;32;20409;-73
2022/09/21 21:43:47;;;;;;;0.90;0.70;;;17.60;68.90;;;;;;10827718;32;20019;-73
2022/09/21 21:49:49;;;;;;;4.50;2.40;;;17.60;68.90;;;;;;10789803;33;20385;-73
2022/09/21 21:56:08;;;;;;;2.87;1.98;;;17.40;69.10;;;;;;10789019;33;20328;-73
2022/09/21 22:02:10;;;;;;;2.10;1.47;;;17.30;69.20;;;;;;10807303;33;20035;-73
2022/09/21 22:08:12;;;;;;;3.03;1.92;;;17.20;69.50;;;;;;10822384;32;20028;-73
2022/09/21 22:14:14;;;;;;;3.08;1.90;;;17.30;69.60;;;;;;10825365;27;20036;-73
2022/09/21 22:20:16;;;;;;;3.08;2.03;;;17.30;69.70;;;;;;10851384;32;20058;-74
2022/09/21 22:26:19;;;;;;;3.28;2.22;;;17.30;69.70;;;;;;10866223;32;20036;-74
2022/09/21 22:32:21;;;;;;;2.83;1.80;;;17.30;70.50;;;;;;10864452;32;20016;-73
2022/09/21 22:38:28;;;;;;;2.67;2.12;;;17.40;70.80;;;;;;10861783;32;20327;-73
2022/09/21 22:44:31;;;;;;;4.30;1.87;;;17.30;71.40;;;;;;10849556;32;20028;-73
2022/09/21 22:50:32;;;;;;;2.78;1.77;;;17.30;72.00;;;;;;10872757;32;20336;-73
2022/09/21 22:56:35;;;;;;;4.18;2.20;;;17.30;72.90;;;;;;10872462;32;20057;-73
2022/09/21 23:02:37;;;;;;;2.65;2.03;;;17.20;73.30;;;;;;10872256;32;20054;-73
2022/09/21 23:08:39;;;;;;;3.03;2.15;;;17.20;73.60;;;;;;10870467;32;20023;-73
2022/09/21 23:14:41;;;;;;;2.75;1.83;;;17.20;73.50;;;;;;10871769;32;20024;-73
2022/09/21 23:20:43;;;;;;;3.45;2.15;;;17.10;73.50;;;;;;10869637;32;20023;-73
2022/09/21 23:26:46;;;;;;;4.57;2.90;;;17.10;73.50;;;;;;10856117;32;20404;-73
2022/09/21 23:32:50;;;;;;;3.10;2.35;;;17.00;73.20;;;;;;10853842;32;20340;-73
2022/09/21 23:38:53;;;;;;;2.20;1.92;;;17.00;73.30;;;;;;10870884;32;20054;-73
2022/09/21 23:44:55;;;;;;;1.55;1.45;;;16.90;73.80;;;;;;10870687;32;20046;-73
2022/09/21 23:50:58;;;;;;;2.28;1.87;;;16.90;74.10;;;;;;10867217;32;20027;-73
2022/09/21 23:57:00;;;;;;;3.20;2.65;;;16.80;73.90;;;;;;10869875;32;20422;-73
